Time;durP1;ratioP1;P1;durP2;ratioP2;P2;SDS_P1;SDS_P2;PMS_P1;PMS_P2;Temp;Humidity;BMP_temperature;BMP_pressure;BME280_temperature;BME280_humidity;BME280_pressure;Samples;Min_cycle;Max_cycle;Signal;HPM_P1;HPM_P2
2023/08/17 00:02:11;;;;;;;9.48;4.68;;;;;;;;;;5054167;28;20492;-74
2023/08/17 00:04:37;;;;;;;6.80;4.60;;;;;;;;;;5053955;28;20482;-74
2023/08/17 00:07:03;;;;;;;7.15;4.45;;;;;;;;;;5053970;28;20116;-74
2023/08/17 00:09:29;;;;;;;8.30;4.88;;;;;;;;;;5053929;28;20036;-74
2023/08/17 00:11:55;;;;;;;7.57;4.90;;;;;;;;;;5053951;28;20025;-74
2023/08/17 00:14:22;;;;;;;8.00;4.85;;;;;;;;;;5053960;28;20025;-74
2023/08/17 00:16:49;;;;;;;9.68;4.82;;;;;;;;;;5053847;28;20021;-74
2023/08/17 00:19:15;;;;;;;7.13;4.40;;;;;;;;;;5053691;28;20025;-74
2023/08/17 00:21:41;;;;;;;8.68;4.47;;;;;;;;;;5053785;28;20371;-74
2023/08/17 00:24:08;;;;;;;6.82;4.85;;;;;;;;;;5053747;28;20073;-74
2023/08/17 00:26:34;;;;;;;7.18;4.28;;;;;;;;;;5053576;28;20051;-74
2023/08/17 00:29:00;;;;;;;9.10;5.22;;;;;;;;;;5053451;28;20025;-74
2023/08/17 00:31:26;;;;;;;9.43;4.53;;;;;;;;;;5053571;28;20518;-74
2023/08/17 00:33:52;;;;;;;8.05;4.55;;;;;;;;;;5053213;28;20077;-74
2023/08/17 00:36:18;;;;;;;4.75;4.28;;;;;;;;;;5053477;28;20488;-74
2023/08/17 00:38:44;;;;;;;6.75;4.25;;;;;;;;;;5053401;28;20021;-74
2023/08/17 00:41:10;;;;;;;6.93;3.95;;;;;;;;;;5053350;28;20118;-74
2023/08/17 00:43:36;;;;;;;8.15;4.55;;;;;;;;;;5053252;28;20096;-74
2023/08/17 00:46:02;;;;;;;6.28;3.72;;;;;;;;;;5053135;28;20116;-74
2023/08/17 00:48:31;;;;;;;8.57;4.50;;;;;;;;;;5053053;28;20359;-74
2023/08/17 00:50:58;;;;;;;5.82;4.30;;;;;;;;;;5053079;28;20024;-74
2023/08/17 00:53:26;;;;;;;10.02;4.10;;;;;;;;;;5053101;28;20071;-74
2023/08/17 00:55:53;;;;;;;6.63;4.13;;;;;;;;;;5053018;28;20527;-74
2023/08/17 00:58:21;;;;;;;6.63;4.32;;;;;;;;;;5052973;28;20017;-74
2023/08/17 01:00:47;;;;;;;5.93;4.20;;;;;;;;;;5052992;28;20452;-74
2023/08/17 01:03:16;;;;;;;7.38;4.25;;;;;;;;;;5052824;28;20369;-74
2023/08/17 01:05:42;;;;;;;5.50;3.80;;;;;;;;;;5052810;28;20009;-74
2023/08/17 01:08:08;;;;;;;6.97;3.97;;;;;;;;;;5052391;28;20029;-74
2023/08/17 01:10:46;;;;;;;6.03;4.10;;;;;;;;;;5052483;28;20109;-74
2023/08/17 01:13:16;;;;;;;9.18;4.78;;;;;;;;;;5052700;28;20021;-74
2023/08/17 01:15:45;;;;;;;7.30;4.90;;;;;;;;;;5052724;28;20040;-74
2023/08/17 01:18:16;;;;;;;6.80;5.00;;;;;;;;;;5052666;28;20323;-74
2023/08/17 01:20:43;;;;;;;12.20;4.80;;;;;;;;;;5052736;28;20021;-74
2023/08/17 01:23:09;;;;;;;6.95;4.57;;;;;;;;;;5052594;28;20013;-74
2023/08/17 01:25:38;;;;;;;6.45;4.65;;;;;;;;;;5052841;28;20109;-74
2023/08/17 01:28:05;;;;;;;8.13;3.75;;;;;;;;;;5052355;28;20033;-74
2023/08/17 01:30:34;;;;;;;9.52;4.38;;;;;;;;;;5052506;28;20032;-74
2023/08/17 01:33:09;;;;;;;4.53;3.95;;;;;;;;;;5052452;28;20602;-74
2023/08/17 01:35:39;;;;;;;8.77;4.30;;;;;;;;;;5052615;28;20088;-74
2023/08/17 01:38:08;;;;;;;9.50;3.90;;;;;;;;;;5052677;28;20490;-73
2023/08/17 01:40:34;;;;;;;6.78;3.88;;;;;;;;;;5052363;28;20029;-74
2023/08/17 01:43:01;;;;;;;7.00;4.05;;;;;;;;;;5052383;28;20017;-74
2023/08/17 01:45:28;;;;;;;7.38;3.80;;;;;;;;;;5052229;28;20029;-74
2023/08/17 01:47:55;;;;;;;8.40;4.13;;;;;;;;;;5052196;28;20115;-74
2023/08/17 01:50:21;;;;;;;4.97;3.33;;;;;;;;;;5052245;28;20381;-74
2023/08/17 01:52:47;;;;;;;7.18;4.43;;;;;;;;;;5052045;28;20025;-74
2023/08/17 01:55:13;;;;;;;5.60;3.75;;;;;;;;;;5052409;28;20460;-74
2023/08/17 01:57:40;;;;;;;6.03;3.88;;;;;;;;;;5052187;28;20033;-74
2023/08/17 02:00:07;;;;;;;7.10;3.92;;;;;;;;;;5052429;28;20052;-74
2023/08/17 02:02:33;;;;;;;6.82;3.75;;;;;;;;;;5052244;28;20022;-74
2023/08/17 02:04:59;;;;;;;6.50;3.92;;;;;;;;;;5052123;28;20025;-74
2023/08/17 02:07:25;;;;;;;5.97;3.70;;;;;;;;;;5055952;28;20095;-74
2023/08/17 02:09:51;;;;;;;6.68;3.55;;;;;;;;;;5056291;28;20072;-74
2023/08/17 02:12:17;;;;;;;8.43;3.72;;;;;;;;;;5056066;28;20032;-74
2023/08/17 02:14:43;;;;;;;6.55;3.95;;;;;;;;;;5056061;28;20104;-74
2023/08/17 02:17:09;;;;;;;6.32;3.60;;;;;;;;;;5056073;28;20464;-74
2023/08/17 02:19:35;;;;;;;6.60;3.65;;;;;;;;;;5056257;28;20448;-74
2023/08/17 02:22:02;;;;;;;7.05;3.42;;;;;;;;;;5056030;28;20079;-74
2023/08/17 02:24:28;;;;;;;7.45;3.53;;;;;;;;;;5055847;28;20067;-74
2023/08/17 02:26:54;;;;;;;3.80;3.25;;;;;;;;;;5055852;28;20032;-74
2023/08/17 02:29:20;;;;;;;4.90;3.25;;;;;;;;;;5055796;28;20029;-74
2023/08/17 02:31:46;;;;;;;7.07;3.22;;;;;;;;;;5055745;28;20486;-74
2023/08/17 02:34:12;;;;;;;5.20;3.83;;;;;;;;;;5054344;28;20056;-74
2023/08/17 02:36:38;;;;;;;7.30;3.78;;;;;;;;;;5055602;28;20496;-74
2023/08/17 02:39:04;;;;;;;6.32;3.50;;;;;;;;;;5055371;28;20025;-74
2023/08/17 02:41:33;;;;;;;8.20;3.67;;;;;;;;;;5055644;28;20347;-74
2023/08/17 02:43:59;;;;;;;7.68;3.72;;;;;;;;;;5056156;28;20029;-74
2023/08/17 02:46:25;;;;;;;7.68;3.95;;;;;;;;;;5055549;28;20036;-74
2023/08/17 02:48:51;;;;;;;6.30;3.63;;;;;;;;;;5055371;28;20033;-74
2023/08/17 02:51:17;;;;;;;4.75;3.50;;;;;;;;;;5054389;28;20025;-74
2023/08/17 02:53:43;;;;;;;4.65;3.60;;;;;;;;;;5055446;28;20415;-74
2023/08/17 02:56:11;;;;;;;7.47;3.78;;;;;;;;;;5055236;28;20029;-74
2023/08/17 02:58:40;;;;;;;5.57;4.30;;;;;;;;;;5055504;28;20440;-74
2023/08/17 03:01:06;;;;;;;6.68;4.32;;;;;;;;;;5053848;28;20021;-74
2023/08/17 03:03:32;;;;;;;6.63;3.65;;;;;;;;;;5055296;28;20024;-74
2023/08/17 03:05:58;;;;;;;6.03;4.13;;;;;;;;;;5055143;28;20349;-74
2023/08/17 03:08:24;;;;;;;7.60;4.82;;;;;;;;;;5054913;28;20094;-74
2023/08/17 03:10:50;;;;;;;6.32;4.03;;;;;;;;;;5055037;28;20025;-74
2023/08/17 03:13:16;;;;;;;6.20;4.40;;;;;;;;;;5054990;28;20040;-74
2023/08/17 03:15:42;;;;;;;7.68;3.72;;;;;;;;;;5055238;28;20028;-74
2023/08/17 03:18:08;;;;;;;7.28;4.35;;;;;;;;;;5054882;28;20049;-74
2023/08/17 03:20:35;;;;;;;9.13;4.50;;;;;;;;;;5055169;28;20120;-74
2023/08/17 03:23:01;;;;;;;6.95;4.53;;;;;;;;;;5054699;28;20067;-74
2023/08/17 03:25:27;;;;;;;7.60;4.25;;;;;;;;;;5054505;28;20020;-74
2023/08/17 03:27:53;;;;;;;7.65;4.45;;;;;;;;;;5053974;28;20083;-74
2023/08/17 03:30:19;;;;;;;8.77;3.90;;;;;;;;;;5054743;28;20408;-74
2023/08/17 03:32:45;;;;;;;7.93;4.53;;;;;;;;;;5054997;28;20061;-74
2023/08/17 03:35:13;;;;;;;10.40;4.40;;;;;;;;;;5054320;28;20084;-74
2023/08/17 03:37:39;;;;;;;5.35;3.97;;;;;;;;;;5054799;28;20587;-74
2023/08/17 03:40:05;;;;;;;6.93;4.15;;;;;;;;;;5054462;28;20061;-74
2023/08/17 03:42:31;;;;;;;5.68;3.97;;;;;;;;;;5054398;28;20025;-74
2023/08/17 03:44:57;;;;;;;8.93;4.88;;;;;;;;;;5054457;28;20025;-74
2023/08/17 03:47:23;;;;;;;8.25;4.10;;;;;;;;;;5054266;28;20033;-74
2023/08/17 03:49:49;;;;;;;7.40;3.78;;;;;;;;;;5054353;28;20025;-74
2023/08/17 03:52:15;;;;;;;5.97;3.97;;;;;;;;;;5054256;28;20032;-74
2023/08/17 03:54:41;;;;;;;8.88;4.93;;;;;;;;;;5054190;28;20364;-74
2023/08/17 03:57:08;;;;;;;9.45;4.82;;;;;;;;;;5054227;28;20033;-74
2023/08/17 03:59:34;;;;;;;5.70;4.65;;;;;;;;;;5054440;28;20127;-74
2023/08/17 04:02:00;;;;;;;8.63;4.50;;;;;;;;;;5054004;28;20101;-74
2023/08/17 04:04:26;;;;;;;7.25;4.28;;;;;;;;;;5054004;28;20140;-74
2023/08/17 04:06:52;;;;;;;7.93;4.63;;;;;;;;;;5053880;28;20159;-74
2023/08/17 04:09:18;;;;;;;6.82;4.50;;;;;;;;;;5053866;28;20472;-74
2023/08/17 04:11:44;;;;;;;8.50;4.88;;;;;;;;;;5053679;28;20180;-74
2023/08/17 04:14:10;;;;;;;7.80;4.88;;;;;;;;;;5053778;28;20028;-74
2023/08/17 04:16:36;;;;;;;5.97;4.60;;;;;;;;;;5053704;28;20407;-74
2023/08/17 04:19:02;;;;;;;9.02;4.88;;;;;;;;;;5053737;28;20036;-74
2023/08/17 04:21:28;;;;;;;9.68;5.03;;;;;;;;;;5053658;28;20024;-74
2023/08/17 04:23:54;;;;;;;6.25;4.32;;;;;;;;;;5053540;28;20056;-74
2023/08/17 04:26:20;;;;;;;7.03;4.45;;;;;;;;;;5053527;28;20464;-74
2023/08/17 04:28:46;;;;;;;9.45;5.45;;;;;;;;;;5052980;28;20037;-74
2023/08/17 04:31:12;;;;;;;9.98;4.72;;;;;;;;;;5053828;28;20025;-74
2023/08/17 04:33:38;;;;;;;8.07;4.45;;;;;;;;;;5053445;28;20032;-74
2023/08/17 04:36:04;;;;;;;8.10;5.20;;;;;;;;;;5053161;28;20049;-74
2023/08/17 04:38:30;;;;;;;8.52;5.43;;;;;;;;;;5053345;28;20032;-74
2023/08/17 04:40:57;;;;;;;10.02;5.20;;;;;;;;;;5053376;28;20021;-74
2023/08/17 04:43:23;;;;;;;12.27;4.97;;;;;;;;;;5053213;28;20048;-74
2023/08/17 04:45:49;;;;;;;11.88;5.07;;;;;;;;;;5053242;28;20107;-74
2023/08/17 04:48:14;;;;;;;9.82;5.00;;;;;;;;;;5053066;28;20162;-74
2023/08/17 04:50:41;;;;;;;9.40;4.95;;;;;;;;;;5051668;28;20025;-74
2023/08/17 04:53:07;;;;;;;7.60;4.30;;;;;;;;;;5051858;28;20095;-74
2023/08/17 04:55:33;;;;;;;7.45;3.95;;;;;;;;;;5053157;28;20025;-74
2023/08/17 04:57:59;;;;;;;8.13;4.80;;;;;;;;;;5052970;28;20371;-74
2023/08/17 05:00:27;;;;;;;5.68;4.20;;;;;;;;;;5052899;28;20032;-74
2023/08/17 05:02:57;;;;;;;9.35;4.45;;;;;;;;;;5053249;28;20445;-75
2023/08/17 05:05:23;;;;;;;7.88;3.15;;;;;;;;;;5052924;28;20029;-74
2023/08/17 05:07:49;;;;;;;4.22;3.15;;;;;;;;;;5052791;28;20040;-74
2023/08/17 05:10:15;;;;;;;4.82;3.45;;;;;;;;;;5052812;28;20021;-74
2023/08/17 05:12:41;;;;;;;6.47;3.95;;;;;;;;;;5052729;28;20106;-74
2023/08/17 05:15:08;;;;;;;4.93;3.50;;;;;;;;;;5052658;28;20056;-74
2023/08/17 05:17:34;;;;;;;6.07;4.18;;;;;;;;;;5052511;28;20029;-74
2023/08/17 05:20:00;;;;;;;5.75;3.53;;;;;;;;;;5052875;28;20071;-74
2023/08/17 05:22:26;;;;;;;5.53;4.03;;;;;;;;;;5052530;28;20082;-74
2023/08/17 05:24:52;;;;;;;5.70;3.47;;;;;;;;;;5051750;28;20029;-74
2023/08/17 05:27:18;;;;;;;3.88;3.13;;;;;;;;;;5052069;28;20505;-74
2023/08/17 05:29:44;;;;;;;6.03;3.83;;;;;;;;;;5052359;28;20025;-74
2023/08/17 05:32:09;;;;;;;5.45;3.55;;;;;;;;;;5052345;28;20025;-74
2023/08/17 05:34:35;;;;;;;3.08;2.72;;;;;;;;;;5051027;28;20132;-74
2023/08/17 05:37:02;;;;;;;5.50;3.00;;;;;;;;;;5052409;28;20552;-74
2023/08/17 05:39:29;;;;;;;4.78;2.88;;;;;;;;;;5052286;28;20028;-74
2023/08/17 05:41:55;;;;;;;5.57;2.47;;;;;;;;;;5050402;28;20009;-75
2023/08/17 05:44:21;;;;;;;4.57;2.22;;;;;;;;;;5052136;28;20017;-74
2023/08/17 05:46:48;;;;;;;4.40;2.50;;;;;;;;;;5052124;28;20036;-75
2023/08/17 05:49:14;;;;;;;3.47;1.80;;;;;;;;;;5052260;28;20018;-75
2023/08/17 05:51:40;;;;;;;4.47;2.28;;;;;;;;;;5052385;28;20104;-75
2023/08/17 05:54:07;;;;;;;3.05;2.00;;;;;;;;;;5052402;28;20159;-74
2023/08/17 05:56:33;;;;;;;3.13;1.98;;;;;;;;;;5052028;28;20055;-74
2023/08/17 05:58:59;;;;;;;4.68;2.00;;;;;;;;;;5051755;28;20025;-75
2023/08/17 06:01:25;;;;;;;2.22;1.30;;;;;;;;;;5052434;28;20083;-74
2023/08/17 06:03:51;;;;;;;3.88;1.83;;;;;;;;;;5051984;28;20383;-75
2023/08/17 06:06:17;;;;;;;2.67;1.00;;;;;;;;;;5052016;28;20444;-75
2023/08/17 06:08:44;;;;;;;3.60;1.83;;;;;;;;;;5052074;28;20045;-75
2023/08/17 06:11:10;;;;;;;3.70;2.13;;;;;;;;;;5052230;28;20025;-75
2023/08/17 06:13:36;;;;;;;3.47;1.77;;;;;;;;;;5051994;28;20357;-75
2023/08/17 06:16:02;;;;;;;3.67;1.95;;;;;;;;;;5052453;28;20040;-75
2023/08/17 06:18:30;;;;;;;3.58;1.48;;;;;;;;;;5052660;28;20044;-75
2023/08/17 06:20:56;;;;;;;4.00;1.50;;;;;;;;;;5051894;28;20025;-75
2023/08/17 06:23:22;;;;;;;3.70;1.55;;;;;;;;;;5051814;28;20379;-75
2023/08/17 06:25:49;;;;;;;4.28;1.52;;;;;;;;;;5051845;28;20025;-74
2023/08/17 06:28:16;;;;;;;2.55;1.50;;;;;;;;;;5051966;28;20660;-74
2023/08/17 06:30:42;;;;;;;3.53;1.38;;;;;;;;;;5051930;28;20452;-74
2023/08/17 06:33:08;;;;;;;2.97;1.77;;;;;;;;;;5051833;28;20021;-74
2023/08/17 06:35:34;;;;;;;4.20;1.38;;;;;;;;;;5050580;28;20622;-75
2023/08/17 06:38:00;;;;;;;2.10;1.55;;;;;;;;;;5052235;28;20033;-74
2023/08/17 06:40:26;;;;;;;2.85;1.40;;;;;;;;;;5052143;28;20033;-74
2023/08/17 06:42:54;;;;;;;1.55;1.17;;;;;;;;;;5051740;28;20025;-75
2023/08/17 06:45:20;;;;;;;3.00;1.02;;;;;;;;;;5052287;28;20122;-74
2023/08/17 06:47:48;;;;;;;1.65;1.20;;;;;;;;;;5051602;28;20076;-75
2023/08/17 06:50:14;;;;;;;2.70;1.30;;;;;;;;;;5051965;28;20032;-75
2023/08/17 06:52:40;;;;;;;3.03;2.00;;;;;;;;;;5053963;28;20388;-75
2023/08/17 06:55:06;;;;;;;1.58;1.08;;;;;;;;;;5055264;28;20486;-75
2023/08/17 06:57:32;;;;;;;3.35;1.33;;;;;;;;;;5055242;28;20035;-75
2023/08/17 06:59:58;;;;;;;1.30;1.08;;;;;;;;;;5055129;28;20103;-75
2023/08/17 07:02:24;;;;;;;5.95;0.95;;;;;;;;;;5055380;28;20025;-76
2023/08/17 07:04:50;;;;;;;1.85;0.73;;;;;;;;;;5055992;28;20629;-75
2023/08/17 07:07:16;;;;;;;1.75;0.88;;;;;;;;;;5055396;28;20032;-75
2023/08/17 07:09:42;;;;;;;2.08;0.80;;;;;;;;;;5054998;28;20598;-75
2023/08/17 07:12:08;;;;;;;1.20;0.77;;;;;;;;;;5055377;28;20495;-75
2023/08/17 07:14:34;;;;;;;2.92;1.15;;;;;;;;;;5054861;28;20079;-75
2023/08/17 07:17:00;;;;;;;2.38;1.00;;;;;;;;;;5054631;28;20033;-75
2023/08/17 07:19:26;;;;;;;4.13;1.10;;;;;;;;;;5054846;28;20096;-75
2023/08/17 07:21:53;;;;;;;1.48;0.60;;;;;;;;;;5055215;28;20109;-75
2023/08/17 07:24:19;;;;;;;1.25;0.70;;;;;;;;;;5055137;28;20495;-75
2023/08/17 07:26:45;;;;;;;0.52;0.35;;;;;;;;;;5055004;28;20025;-76
2023/08/17 07:29:11;;;;;;;1.73;0.70;;;;;;;;;;5054742;28;20061;-75
2023/08/17 07:31:37;;;;;;;2.33;1.00;;;;;;;;;;5054463;28;20379;-75
2023/08/17 07:34:04;;;;;;;3.15;0.90;;;;;;;;;;5054487;28;20074;-75
2023/08/17 07:36:30;;;;;;;2.90;1.00;;;;;;;;;;5054111;28;20040;-74
2023/08/17 07:38:56;;;;;;;3.05;1.10;;;;;;;;;;5054472;28;20078;-75
2023/08/17 07:41:22;;;;;;;1.90;1.23;;;;;;;;;;5054214;28;20021;-74
2023/08/17 07:43:48;;;;;;;1.75;0.75;;;;;;;;;;5054423;28;20017;-75
2023/08/17 07:46:14;;;;;;;1.25;0.75;;;;;;;;;;5054217;28;20014;-74
2023/08/17 07:48:40;;;;;;;3.25;1.38;;;;;;;;;;5054450;28;20108;-74
2023/08/17 07:51:07;;;;;;;2.15;0.70;;;;;;;;;;5054072;28;20100;-74
2023/08/17 07:53:33;;;;;;;2.97;0.95;;;;;;;;;;5054607;28;20032;-76
2023/08/17 07:55:59;;;;;;;3.45;1.40;;;;;;;;;;5054188;28;20032;-75
2023/08/17 07:58:25;;;;;;;1.58;0.80;;;;;;;;;;5054055;28;20033;-75
2023/08/17 08:00:51;;;;;;;2.35;0.85;;;;;;;;;;5052976;28;20425;-76
2023/08/17 08:03:17;;;;;;;6.43;1.38;;;;;;;;;;5053126;28;20048;-75
2023/08/17 08:05:43;;;;;;;1.63;0.88;;;;;;;;;;5052584;28;20031;-75
2023/08/17 08:08:09;;;;;;;2.30;0.95;;;;;;;;;;5053778;28;20514;-75
2023/08/17 08:10:35;;;;;;;1.23;0.90;;;;;;;;;;5053893;28;20020;-75
2023/08/17 08:13:01;;;;;;;2.53;1.02;;;;;;;;;;5053859;28;20440;-75
2023/08/17 08:15:27;;;;;;;0.73;0.60;;;;;;;;;;5053818;28;20111;-75
2023/08/17 08:17:53;;;;;;;3.17;0.77;;;;;;;;;;5054020;28;20029;-76
2023/08/17 08:20:19;;;;;;;3.45;0.90;;;;;;;;;;5053512;28;20036;-75
2023/08/17 08:22:45;;;;;;;2.67;0.63;;;;;;;;;;5053567;28;20024;-76
2023/08/17 08:25:11;;;;;;;2.00;0.70;;;;;;;;;;5053508;28;20107;-76
2023/08/17 08:27:37;;;;;;;1.83;0.80;;;;;;;;;;5053478;28;20041;-75
2023/08/17 08:30:03;;;;;;;2.88;0.63;;;;;;;;;;5052462;28;20111;-76
2023/08/17 08:32:29;;;;;;;2.83;0.60;;;;;;;;;;5053408;28;20048;-75
2023/08/17 08:34:55;;;;;;;1.35;0.85;;;;;;;;;;5053459;28;20076;-76
2023/08/17 08:37:21;;;;;;;2.53;0.50;;;;;;;;;;5053024;28;20391;-74
2023/08/17 08:39:53;;;;;;;3.25;0.63;;;;;;;;;;5052579;28;20403;-77
2023/08/17 08:42:20;;;;;;;3.17;0.52;;;;;;;;;;5053205;28;20025;-75
2023/08/17 08:44:46;;;;;;;1.92;0.80;;;;;;;;;;5053225;28;20166;-75
2023/08/17 08:47:13;;;;;;;1.48;0.50;;;;;;;;;;5053122;28;20033;-75
2023/08/17 08:49:40;;;;;;;1.70;0.68;;;;;;;;;;5053087;28;20078;-75
2023/08/17 08:52:08;;;;;;;1.98;0.50;;;;;;;;;;5053126;28;20070;-75
2023/08/17 08:54:36;;;;;;;1.98;0.50;;;;;;;;;;5053491;28;20449;-76
2023/08/17 08:57:03;;;;;;;0.57;0.50;;;;;;;;;;5053321;28;20017;-76
2023/08/17 08:59:29;;;;;;;1.38;0.60;;;;;;;;;;5053026;28;20031;-76
2023/08/17 09:01:57;;;;;;;0.52;0.45;;;;;;;;;;5052968;28;20487;-76
2023/08/17 09:04:24;;;;;;;2.55;0.60;;;;;;;;;;5052848;28;20043;-76
2023/08/17 09:06:51;;;;;;;4.68;1.42;;;;;;;;;;5052730;28;20067;-76
2023/08/17 09:09:18;;;;;;;1.65;0.65;;;;;;;;;;5052694;28;20074;-76
2023/08/17 09:11:44;;;;;;;1.30;0.60;;;;;;;;;;5052794;28;20070;-76
2023/08/17 09:14:10;;;;;;;45.40;3.17;;;;;;;;;;5052502;28;20117;-75
2023/08/17 09:16:36;;;;;;;2.45;0.65;;;;;;;;;;5052604;28;20065;-75
2023/08/17 09:19:02;;;;;;;0.80;0.50;;;;;;;;;;5052649;28;20094;-75
2023/08/17 09:21:33;;;;;;;2.03;0.60;;;;;;;;;;5052882;28;20035;-76
2023/08/17 09:23:59;;;;;;;1.15;0.50;;;;;;;;;;5053263;28;20025;-76
2023/08/17 09:26:25;;;;;;;1.20;0.50;;;;;;;;;;5052670;28;20021;-75
2023/08/17 09:28:53;;;;;;;3.72;0.75;;;;;;;;;;5052404;28;20404;-75
2023/08/17 09:31:24;;;;;;;2.42;0.73;;;;;;;;;;5052680;28;20017;-75
2023/08/17 09:33:53;;;;;;;2.15;0.73;;;;;;;;;;5052449;28;20047;-75
2023/08/17 09:36:22;;;;;;;1.20;0.57;;;;;;;;;;5052173;28;20067;-75
2023/08/17 09:38:51;;;;;;;1.98;0.73;;;;;;;;;;5052365;28;20016;-75
2023/08/17 09:41:18;;;;;;;3.45;0.85;;;;;;;;;;5052370;28;20052;-75
2023/08/17 09:43:44;;;;;;;0.95;0.50;;;;;;;;;;5052249;28;20025;-75
2023/08/17 09:46:10;;;;;;;1.25;0.50;;;;;;;;;;5052638;28;20021;-75
2023/08/17 09:48:36;;;;;;;1.20;1.00;;;;;;;;;;5052166;28;20083;-75
2023/08/17 09:51:02;;;;;;;7.78;0.80;;;;;;;;;;5052234;28;20100;-75
2023/08/17 09:53:29;;;;;;;1.60;0.60;;;;;;;;;;5052204;28;20049;-75
2023/08/17 09:55:55;;;;;;;2.63;0.70;;;;;;;;;;5052172;28;20048;-75
2023/08/17 09:58:21;;;;;;;1.60;0.55;;;;;;;;;;5050922;28;20120;-75
2023/08/17 10:00:49;;;;;;;1.27;0.70;;;;;;;;;;5052195;28;20112;-75
2023/08/17 10:03:15;;;;;;;0.98;0.70;;;;;;;;;;5052099;28;20092;-75
2023/08/17 10:05:43;;;;;;;3.25;0.98;;;;;;;;;;5052052;28;20041;-75
2023/08/17 10:08:10;;;;;;;1.80;0.77;;;;;;;;;;5051989;28;20060;-75
2023/08/17 10:10:39;;;;;;;1.17;0.80;;;;;;;;;;5052110;28;20098;-75
2023/08/17 10:13:16;;;;;;;1.95;0.73;;;;;;;;;;5051900;28;20024;-75
2023/08/17 10:15:48;;;;;;;4.35;0.75;;;;;;;;;;5051895;28;20379;-75
2023/08/17 10:18:14;;;;;;;1.40;0.80;;;;;;;;;;5051937;28;20063;-74
2023/08/17 10:20:41;;;;;;;3.03;0.80;;;;;;;;;;5051878;28;20057;-74
2023/08/17 10:23:19;;;;;;;2.33;0.75;;;;;;;;;;5051914;28;20021;-74
2023/08/17 10:25:46;;;;;;;1.60;0.82;;;;;;;;;;5052005;28;20027;-76
2023/08/17 10:28:12;;;;;;;1.20;0.68;;;;;;;;;;5055375;28;20037;-76
2023/08/17 10:30:40;;;;;;;3.40;0.98;;;;;;;;;;5055776;28;20033;-76
2023/08/17 10:33:06;;;;;;;1.55;0.80;;;;;;;;;;5055787;28;20035;-76
2023/08/17 10:35:33;;;;;;;2.08;0.80;;;;;;;;;;5055587;28;20056;-76
2023/08/17 10:38:02;;;;;;;;;;;;;;;;;;5056481;28;20067;-76
2023/08/17 10:40:29;;;;;;;1.95;0.88;;;;;;;;;;5039440;28;20276;-76
2023/08/17 10:42:58;;;;;;;3.10;1.13;;;;;;;;;;5035585;28;20030;-76
2023/08/17 10:45:30;;;;;;;2.65;0.98;;;;;;;;;;5035709;28;20529;-76
2023/08/17 10:48:06;;;;;;;3.25;0.90;;;;;;;;;;5035208;28;20037;-76
2023/08/17 10:50:34;;;;;;;3.15;1.08;;;;;;;;;;5043275;28;20057;-76
2023/08/17 10:53:04;;;;;;;2.70;0.93;;;;;;;;;;5055667;28;20021;-76
2023/08/17 10:55:40;;;;;;;4.57;1.25;;;;;;;;;;5055679;28;20079;-76
2023/08/17 10:58:13;;;;;;;1.00;0.60;;;;;;;;;;5055665;28;20056;-76
2023/08/17 11:00:39;;;;;;;2.30;0.98;;;;;;;;;;5055447;28;20447;-76
2023/08/17 11:03:06;;;;;;;2.63;0.98;;;;;;;;;;5052881;28;20025;-76
2023/08/17 11:05:37;;;;;;;3.85;0.90;;;;;;;;;;5051305;28;20029;-76
2023/08/17 11:08:03;;;;;;;2.25;1.10;;;;;;;;;;5035215;28;20033;-76
2023/08/17 11:10:29;;;;;;;5.28;1.38;;;;;;;;;;5035457;28;20104;-76
2023/08/17 11:12:59;;;;;;;2.40;0.77;;;;;;;;;;5035527;28;20021;-76
2023/08/17 11:15:26;;;;;;;2.75;1.10;;;;;;;;;;5035760;28;20021;-76
2023/08/17 11:17:52;;;;;;;1.20;0.82;;;;;;;;;;5035301;28;20025;-76
2023/08/17 11:20:18;;;;;;;2.38;1.30;;;;;;;;;;5035910;28;20021;-76
2023/08/17 11:22:45;;;;;;;3.53;1.23;;;;;;;;;;5035466;28;20045;-76
2023/08/17 11:25:11;;;;;;;2.50;1.15;;;;;;;;;;5035116;28;20104;-76
2023/08/17 11:27:37;;;;;;;2.30;0.98;;;;;;;;;;5035053;28;20041;-76
2023/08/17 11:30:04;;;;;;;1.92;0.63;;;;;;;;;;5034873;28;20345;-76
2023/08/17 11:32:30;;;;;;;2.20;1.10;;;;;;;;;;5034658;28;20053;-76
2023/08/17 11:34:56;;;;;;;5.28;1.00;;;;;;;;;;5034751;28;20124;-76
2023/08/17 11:37:23;;;;;;;2.90;1.20;;;;;;;;;;5034588;28;20021;-76
2023/08/17 11:39:49;;;;;;;1.92;1.00;;;;;;;;;;5034143;28;20021;-76
2023/08/17 11:42:15;;;;;;;3.40;1.23;;;;;;;;;;5050374;28;20529;-76
2023/08/17 11:44:41;;;;;;;2.05;0.95;;;;;;;;;;5034579;28;20026;-75
2023/08/17 11:47:07;;;;;;;5.32;1.13;;;;;;;;;;5034269;28;20022;-75
2023/08/17 11:49:33;;;;;;;4.63;1.67;;;;;;;;;;5034301;28;20108;-75
2023/08/17 11:52:00;;;;;;;1.55;0.80;;;;;;;;;;5034608;28;20032;-75
2023/08/17 11:54:26;;;;;;;3.05;1.45;;;;;;;;;;5034533;28;20028;-75
2023/08/17 11:56:52;;;;;;;2.70;1.15;;;;;;;;;;5034249;28;20025;-75
2023/08/17 11:59:18;;;;;;;5.03;1.27;;;;;;;;;;5049474;28;20033;-75
2023/08/17 12:01:45;;;;;;;3.08;0.93;;;;;;;;;;5034194;28;20367;-75
2023/08/17 12:04:11;;;;;;;4.40;1.20;;;;;;;;;;5034186;28;20018;-75
2023/08/17 12:06:44;;;;;;;2.97;1.08;;;;;;;;;;5034379;28;20543;-75
2023/08/17 12:09:12;;;;;;;4.10;1.42;;;;;;;;;;5033981;28;20025;-75
2023/08/17 12:11:38;;;;;;;2.47;1.58;;;;;;;;;;5034128;28;20436;-75
2023/08/17 12:14:11;;;;;;;2.40;1.45;;;;;;;;;;5033984;28;20484;-75
2023/08/17 12:16:48;;;;;;;2.80;1.25;;;;;;;;;;5033704;28;20068;-74
2023/08/17 12:19:14;;;;;;;7.05;2.15;;;;;;;;;;5036509;28;20044;-75
2023/08/17 12:21:41;;;;;;;3.65;2.00;;;;;;;;;;5073717;28;20444;-75
2023/08/17 12:24:07;;;;;;;5.60;1.92;;;;;;;;;;5073710;28;20086;-75
2023/08/17 12:26:35;;;;;;;4.18;1.52;;;;;;;;;;5073565;28;20029;-74
2023/08/17 12:29:02;;;;;;;6.88;2.08;;;;;;;;;;5073697;28;20025;-75
2023/08/17 12:31:29;;;;;;;3.05;1.80;;;;;;;;;;5073691;28;20025;-75
2023/08/17 12:33:55;;;;;;;5.00;2.03;;;;;;;;;;5073416;28;20403;-75
2023/08/17 12:36:21;;;;;;;4.85;1.70;;;;;;;;;;5071108;28;20048;-75
2023/08/17 12:38:48;;;;;;;4.47;1.48;;;;;;;;;;5053790;28;20044;-75
2023/08/17 12:41:14;;;;;;;3.30;1.52;;;;;;;;;;5053565;28;20025;-75
2023/08/17 12:43:40;;;;;;;3.40;1.45;;;;;;;;;;5053210;28;20029;-75
2023/08/17 12:46:06;;;;;;;3.80;1.50;;;;;;;;;;5053165;28;20074;-75
2023/08/17 12:48:32;;;;;;;3.97;1.30;;;;;;;;;;5052914;28;20055;-75
2023/08/17 12:50:58;;;;;;;3.47;1.60;;;;;;;;;;5052635;28;20464;-75
2023/08/17 12:53:24;;;;;;;4.63;1.75;;;;;;;;;;5053096;28;20025;-75
2023/08/17 12:55:50;;;;;;;8.80;1.50;;;;;;;;;;5053044;28;20083;-75
2023/08/17 12:58:16;;;;;;;5.47;1.60;;;;;;;;;;5053160;28;20488;-75
2023/08/17 13:00:42;;;;;;;3.58;1.10;;;;;;;;;;5053231;28;20063;-75
2023/08/17 13:03:08;;;;;;;3.08;1.65;;;;;;;;;;5052893;28;20060;-75
2023/08/17 13:05:34;;;;;;;2.08;1.50;;;;;;;;;;5052911;28;20021;-75
2023/08/17 13:08:00;;;;;;;2.78;1.65;;;;;;;;;;5052618;28;20556;-75
2023/08/17 13:10:26;;;;;;;3.60;1.75;;;;;;;;;;5051458;28;20017;-75
2023/08/17 13:12:56;;;;;;;5.13;1.50;;;;;;;;;;5052593;28;20564;-75
2023/08/17 13:15:22;;;;;;;3.42;1.67;;;;;;;;;;5052700;28;20025;-75
2023/08/17 13:17:48;;;;;;;4.93;2.08;;;;;;;;;;5052693;28;20036;-75
2023/08/17 13:20:14;;;;;;;4.30;2.47;;;;;;;;;;5052636;28;20021;-75
2023/08/17 13:22:40;;;;;;;3.90;2.20;;;;;;;;;;5052606;28;20104;-75
2023/08/17 13:25:06;;;;;;;4.05;2.00;;;;;;;;;;5052656;28;20017;-75
2023/08/17 13:27:33;;;;;;;3.33;1.75;;;;;;;;;;5052417;28;20379;-75
2023/08/17 13:29:59;;;;;;;2.90;2.17;;;;;;;;;;5052488;28;20029;-75
2023/08/17 13:32:25;;;;;;;5.07;2.13;;;;;;;;;;5052638;28;20024;-75
2023/08/17 13:34:52;;;;;;;4.78;1.70;;;;;;;;;;5052187;28;20131;-75
2023/08/17 13:37:18;;;;;;;4.07;1.35;;;;;;;;;;5052461;28;20086;-74
2023/08/17 13:39:44;;;;;;;4.10;1.98;;;;;;;;;;5052379;28;20033;-75
2023/08/17 13:42:10;;;;;;;3.50;2.10;;;;;;;;;;5054670;28;20039;-80
2023/08/17 13:44:36;;;;;;;3.65;2.53;;;;;;;;;;5058873;28;20036;-79
2023/08/17 13:47:02;;;;;;;2.38;1.60;;;;;;;;;;5058420;28;20025;-79
2023/08/17 13:49:28;;;;;;;2.78;2.10;;;;;;;;;;5062817;28;20029;-80
2023/08/17 13:51:56;;;;;;;2.22;1.25;;;;;;;;;;5065646;28;20029;-80
2023/08/17 13:54:22;;;;;;;5.15;2.40;;;;;;;;;;5063449;28;20017;-80
2023/08/17 13:56:48;;;;;;;4.10;2.00;;;;;;;;;;5055831;28;20372;-80
2023/08/17 13:59:14;;;;;;;2.20;1.70;;;;;;;;;;5056367;28;20036;-80
2023/08/17 14:01:40;;;;;;;3.10;1.77;;;;;;;;;;5059704;28;20028;-79
2023/08/17 14:04:11;;;;;;;4.10;1.50;;;;;;;;;;5065983;28;20021;-80
2023/08/17 14:06:37;;;;;;;2.38;1.25;;;;;;;;;;5057298;28;20013;-80
2023/08/17 14:09:03;;;;;;;3.55;1.70;;;;;;;;;;5066358;28;20087;-80
2023/08/17 14:11:29;;;;;;;3.42;2.00;;;;;;;;;;5046573;28;20049;-79
2023/08/17 14:13:55;;;;;;;4.80;1.60;;;;;;;;;;5042747;28;20396;-79
2023/08/17 14:16:21;;;;;;;4.13;1.90;;;;;;;;;;5041497;28;20037;-79
2023/08/17 14:18:47;;;;;;;7.53;2.35;;;;;;;;;;5040308;28;20068;-81
2023/08/17 14:21:14;;;;;;;2.08;1.58;;;;;;;;;;5046561;28;20024;-80
2023/08/17 14:23:40;;;;;;;8.93;2.10;;;;;;;;;;5049201;28;20021;-80
2023/08/17 14:26:16;;;;;;;3.25;1.67;;;;;;;;;;5050929;28;20597;-80
2023/08/17 14:28:48;;;;;;;4.15;1.50;;;;;;;;;;5047371;28;20043;-80
2023/08/17 14:31:17;;;;;;;3.70;1.70;;;;;;;;;;5042220;28;20464;-79
2023/08/17 14:33:43;;;;;;;2.58;1.73;;;;;;;;;;5041066;28;20337;-79
2023/08/17 14:36:09;;;;;;;3.30;1.65;;;;;;;;;;5040308;28;20048;-80
2023/08/17 14:38:35;;;;;;;3.45;1.05;;;;;;;;;;5047931;28;20127;-79
2023/08/17 14:41:04;;;;;;;1.95;1.75;;;;;;;;;;5060481;28;20104;-79